Los Nietos, California
Current Conditions -  °F | °C
As of 7:53 AM on Friday 19 Dec 2014 (Local Time) from KFUL Reporting Station
Clear Clear  
Wind Chill: 50°   Ceiling: Unl
Heat Index: 50°   Visibility: 8mi
Dew Point: 46°   Wind: 3mph
Humidity: 86%   Direction: 90°E
Pressure: 30.22"   Gusts: NA
Location:  33.9685°N, 118.069°W
Report Text: KFUL 191553Z 09003KT 8SM CLR 10/08 A3022 RMK AO2 SLP233 T01000078
Loading
Personal Weather Stations






























Interactive Weather Map New forecast layout! Learn more

10-Day Weather Forecast

Advertisements
Track Severe Weather on mobile